Time;durP1;ratioP1;P1;durP2;ratioP2;P2;SDS_P1;SDS_P2;PMS_P1;PMS_P2;Temp;Humidity;BMP_temperature;BMP_pressure;BME280_temperature;BME280_humidity;BME280_pressure;Samples;Min_cycle;Max_cycle;Signal;HPM_P1;HPM_P2
2022/03/13 00:00:47;;;;;;;13.13;11.90;;;;;;;3.27;41.85;102038.28;5014336;28;20552;-48
2022/03/13 00:03:17;;;;;;;12.17;11.10;;;;;;;3.23;41.69;102034.19;5014798;28;20433;-48
2022/03/13 00:05:48;;;;;;;12.67;11.00;;;;;;;3.21;42.00;102030.84;5014585;28;20529;-49
2022/03/13 00:08:19;;;;;;;13.13;11.93;;;;;;;3.24;41.92;102024.50;5014350;28;20472;-48
2022/03/13 00:10:47;;;;;;;14.60;13.10;;;;;;;3.21;41.89;102030.84;5014142;28;20541;-46
2022/03/13 00:13:18;;;;;;;11.33;9.87;;;;;;;3.20;42.11;102028.31;5016953;28;20465;-46
2022/03/13 00:15:47;;;;;;;12.47;11.13;;;;;;;3.16;42.20;102030.38;5016587;28;20473;-46
2022/03/13 00:18:15;;;;;;;13.03;11.33;;;;;;;3.12;42.26;102023.63;5016282;28;20632;-46
2022/03/13 00:20:42;;;;;;;13.07;11.67;;;;;;;3.12;41.85;102026.28;5015886;28;20467;-49
2022/03/13 00:23:12;;;;;;;13.40;10.70;;;;;;;3.08;42.10;102030.09;5016189;28;20429;-46
2022/03/13 00:25:40;;;;;;;12.50;10.17;;;;;;;3.06;42.61;102024.09;5016411;28;20799;-45
2022/03/13 00:28:12;;;;;;;15.60;12.10;;;;;;;3.06;41.77;102037.28;5015951;28;20433;-46
2022/03/13 00:30:40;;;;;;;15.63;12.07;;;;;;;3.02;42.15;102030.56;5015073;28;20560;-46
2022/03/13 00:33:09;;;;;;;11.13;10.20;;;;;;;2.99;42.59;102027.31;5015844;28;20437;-46
2022/03/13 00:35:38;;;;;;;10.93;9.80;;;;;;;2.97;42.56;102021.31;5015942;28;20484;-46
2022/03/13 00:38:06;;;;;;;11.57;10.30;;;;;;;2.92;42.97;102015.56;5015694;28;20476;-46
2022/03/13 00:40:37;;;;;;;13.00;10.70;;;;;;;2.87;42.42;102020.38;5015312;28;20835;-46
2022/03/13 00:43:05;;;;;;;12.17;10.97;;;;;;;2.83;42.30;102014.47;5015971;28;20525;-46
2022/03/13 00:45:32;;;;;;;10.37;9.40;;;;;;;2.77;42.42;102026.31;5015491;28;20459;-47
2022/03/13 00:48:00;;;;;;;11.80;10.70;;;;;;;2.70;42.77;102022.47;5015704;28;20911;-46
2022/03/13 00:50:28;;;;;;;11.67;10.40;;;;;;;2.64;43.18;102014.16;5014870;28;20468;-45
2022/03/13 00:52:57;;;;;;;12.17;11.00;;;;;;;2.58;43.06;102015.47;5015450;28;20433;-45
2022/03/13 00:55:24;;;;;;;11.00;10.00;;;;;;;2.56;43.19;102016.53;5015920;28;20476;-46
2022/03/13 00:57:54;;;;;;;11.27;10.10;;;;;;;2.53;43.22;102009.72;5016439;28;20877;-46
2022/03/13 01:00:22;;;;;;;14.73;10.43;;;;;;;2.50;43.60;102015.22;5015775;28;20559;-45
2022/03/13 01:02:49;;;;;;;12.23;11.00;;;;;;;2.47;43.43;102012.81;5016133;28;20859;-47
2022/03/13 01:05:23;;;;;;;12.20;11.00;;;;;;;2.49;43.44;102015.31;5015947;28;20445;-46
2022/03/13 01:07:52;;;;;;;14.23;12.83;;;;;;;2.48;43.98;102018.91;5015350;28;20429;-46
2022/03/13 01:10:21;;;;;;;11.40;10.40;;;;;;;2.46;43.37;102005.00;5015107;28;20528;-45
2022/03/13 01:12:50;;;;;;;12.90;11.40;;;;;;;2.43;43.90;102002.59;5016325;28;20532;-46
2022/03/13 01:15:20;;;;;;;13.37;11.70;;;;;;;2.42;43.79;102012.28;5016445;28;20440;-46
2022/03/13 01:17:47;;;;;;;19.10;12.80;;;;;;;2.42;43.97;102004.38;5015327;28;21081;-46
2022/03/13 01:20:17;;;;;;;12.53;10.70;;;;;;;2.41;43.47;102012.41;5015455;28;20559;-45
2022/03/13 01:22:46;;;;;;;12.53;11.23;;;;;;;2.39;43.61;102015.13;5016321;28;20425;-46
2022/03/13 01:25:14;;;;;;;12.17;11.03;;;;;;;2.34;43.64;102011.16;5016171;28;20433;-47
2022/03/13 01:27:42;;;;;;;14.37;10.60;;;;;;;2.32;44.12;102020.97;5016046;28;20435;-47
2022/03/13 01:30:13;;;;;;;12.23;10.70;;;;;;;2.28;44.21;102015.09;5014459;28;20461;-47
2022/03/13 01:32:48;;;;;;;13.23;11.50;;;;;;;2.25;44.57;102023.22;5015304;28;20421;-44
2022/03/13 01:35:20;;;;;;;13.77;12.30;;;;;;;2.24;44.45;102017.09;5015720;28;20464;-46
2022/03/13 01:37:49;;;;;;;12.17;11.17;;;;;;;2.23;44.20;102014.59;5015302;28;20556;-43
2022/03/13 01:40:20;;;;;;;12.57;11.37;;;;;;;2.21;44.42;102012.06;5014944;28;20473;-46
2022/03/13 01:42:48;;;;;;;11.90;10.83;;;;;;;2.20;44.27;102009.56;5015054;28;20524;-48
2022/03/13 01:45:18;;;;;;;13.47;12.10;;;;;;;2.20;44.29;102006.94;5014889;28;20532;-48
2022/03/13 01:47:48;;;;;;;16.90;12.10;;;;;;;2.20;44.75;101996.41;5014119;28;20421;-45
2022/03/13 01:50:16;;;;;;;17.80;11.77;;;;;;;2.21;44.22;101984.94;5013838;28;20548;-46
2022/03/13 01:52:46;;;;;;;13.50;11.60;;;;;;;2.20;44.52;101991.97;5014930;28;20926;-46
2022/03/13 01:55:14;;;;;;;13.37;11.73;;;;;;;2.20;44.53;101997.25;5014645;28;20539;-46
2022/03/13 01:57:45;;;;;;;12.97;11.87;;;;;;;2.19;44.17;101990.28;5013919;28;20477;-44
2022/03/13 02:00:14;;;;;;;13.10;11.90;;;;;;;2.19;44.46;101992.09;5013956;28;20469;-46
2022/03/13 02:02:45;;;;;;;13.30;11.90;;;;;;;2.17;44.09;101994.84;5013874;28;20440;-46
2022/03/13 02:05:29;;;;;;;11.73;10.70;;;;;;;2.17;43.60;101997.47;5014086;28;20433;-46
2022/03/13 02:07:57;;;;;;;11.73;10.47;;;;;;;2.12;43.91;101998.75;5013888;28;20520;-46
2022/03/13 02:10:25;;;;;;;12.57;11.30;;;;;;;2.08;44.14;101992.03;5013397;28;21006;-46
2022/03/13 02:12:52;;;;;;;11.60;10.60;;;;;;;2.04;43.64;101996.66;5014814;28;20540;-48
2022/03/13 02:15:20;;;;;;;11.40;10.37;;;;;;;2.00;43.90;101997.03;5014638;28;20447;-45
2022/03/13 02:17:48;;;;;;;11.90;10.47;;;;;;;1.93;44.30;102001.88;5014460;28;20483;-46
2022/03/13 02:20:26;;;;;;;11.63;10.43;;;;;;;1.90;44.41;101986.31;5013997;28;20542;-46
2022/03/13 02:23:00;;;;;;;13.57;11.43;;;;;;;1.88;44.70;101988.19;5014136;28;20515;-47
2022/03/13 02:25:31;;;;;;;13.17;11.77;;;;;;;1.87;44.52;101989.16;5014269;28;20866;-46
2022/03/13 02:27:59;;;;;;;11.80;10.57;;;;;;;1.85;44.84;101991.03;5013776;28;20439;-46
2022/03/13 02:30:27;;;;;;;12.33;11.20;;;;;;;1.83;45.41;101984.22;5013907;28;20461;-49
2022/03/13 02:32:55;;;;;;;12.53;11.33;;;;;;;1.81;44.77;101989.59;5014975;28;20441;-47
2022/03/13 02:35:23;;;;;;;12.70;11.37;;;;;;;1.78;44.72;101992.44;5014298;28;20439;-49
2022/03/13 02:37:51;;;;;;;11.93;10.73;;;;;;;1.76;45.44;101990.88;5014062;28;20481;-45
2022/03/13 02:40:22;;;;;;;15.80;12.40;;;;;;;1.77;45.35;101989.91;5013918;28;20472;-47
2022/03/13 02:42:50;;;;;;;13.67;12.30;;;;;;;1.76;45.66;101994.38;5014637;28;20425;-47
2022/03/13 02:45:29;;;;;;;13.97;11.70;;;;;;;1.77;45.08;101985.50;5014646;28;20471;-47
2022/03/13 02:47:57;;;;;;;15.50;11.60;;;;;;;1.75;45.29;101981.31;5007188;28;20425;-47
2022/03/13 02:50:25;;;;;;;16.40;12.10;;;;;;;1.75;44.95;101976.88;5013841;28;20475;-48
2022/03/13 02:52:52;;;;;;;15.30;11.67;;;;;;;1.73;44.83;101968.28;5013983;28;20433;-46
2022/03/13 02:55:21;;;;;;;15.77;12.33;;;;;;;1.74;44.90;101969.09;5014655;28;20508;-47
2022/03/13 02:57:49;;;;;;;12.80;11.60;;;;;;;1.70;45.19;101976.38;5014398;28;20472;-46
2022/03/13 03:00:18;;;;;;;14.70;11.13;;;;;;;1.70;44.71;101979.03;5014077;28;20576;-48
2022/03/13 03:02:46;;;;;;;13.30;11.90;;;;;;;1.70;44.81;101978.19;5014343;28;20425;-45
2022/03/13 03:05:15;;;;;;;13.97;12.30;;;;;;;1.70;44.90;101973.75;5014271;28;20449;-46
2022/03/13 03:07:43;;;;;;;13.60;12.30;;;;;;;1.70;45.59;101970.28;5014226;28;20472;-46
2022/03/13 03:10:13;;;;;;;12.57;11.37;;;;;;;1.68;45.11;101962.50;5013510;28;20468;-46
2022/03/13 03:12:42;;;;;;;12.63;11.20;;;;;;;1.66;45.39;101967.03;5014462;28;20439;-47
2022/03/13 03:15:11;;;;;;;13.57;12.13;;;;;;;1.64;45.37;101966.31;5014299;28;21037;-48
2022/03/13 03:17:39;;;;;;;14.33;12.97;;;;;;;1.63;45.40;101962.84;5016244;28;20834;-48
2022/03/13 03:20:08;;;;;;;13.43;12.10;;;;;;;1.59;44.99;101968.41;5017831;28;20993;-47
2022/03/13 03:22:35;;;;;;;17.40;13.53;;;;;;;1.55;45.29;101966.97;5018248;28;20439;-47
2022/03/13 03:25:03;;;;;;;14.20;12.73;;;;;;;1.53;45.18;101963.59;5017471;28;20527;-47
2022/03/13 03:27:31;;;;;;;13.93;12.63;;;;;;;1.49;46.26;101968.22;5017510;28;20854;-46
2022/03/13 03:30:00;;;;;;;12.70;11.37;;;;;;;1.44;46.07;101970.34;5016663;28;20465;-47
2022/03/13 03:32:28;;;;;;;14.03;11.87;;;;;;;1.38;45.73;101973.38;5017293;28;20428;-45
2022/03/13 03:34:56;;;;;;;15.03;12.33;;;;;;;1.31;45.64;101972.16;5018009;28;20445;-45
2022/03/13 03:37:23;;;;;;;13.73;11.87;;;;;;;1.23;46.25;101969.19;5017393;28;20653;-48
2022/03/13 03:39:51;;;;;;;15.00;13.60;;;;;;;1.19;46.76;101967.75;5016994;28;20473;-47
2022/03/13 03:42:19;;;;;;;14.47;13.17;;;;;;;1.16;46.37;101970.59;5018063;28;20440;-48
2022/03/13 03:44:46;;;;;;;14.77;13.10;;;;;;;1.09;46.93;101966.69;5018074;28;20448;-44
2022/03/13 03:47:16;;;;;;;17.20;14.53;;;;;;;1.06;47.20;101961.66;5017451;28;20436;-50
2022/03/13 03:49:43;;;;;;;16.77;14.00;;;;;;;1.02;48.12;101965.44;5016831;28;20473;-47
2022/03/13 03:52:13;;;;;;;13.97;12.57;;;;;;;1.00;47.96;101960.28;5017545;28;20433;-45
2022/03/13 03:54:41;;;;;;;14.73;13.20;;;;;;;0.95;48.08;101959.78;5017780;28;20441;-45
2022/03/13 03:57:09;;;;;;;15.93;14.30;;;;;;;0.90;48.38;101961.00;5017917;28;20790;-44
2022/03/13 03:59:36;;;;;;;15.77;13.57;;;;;;;0.88;48.13;101962.91;5016957;28;20569;-48
2022/03/13 04:02:04;;;;;;;18.23;15.07;;;;;;;0.84;48.97;101964.91;5017919;28;20532;-49
2022/03/13 04:04:33;;;;;;;18.13;14.57;;;;;;;0.85;49.09;101973.63;5017935;28;20437;-49
2022/03/13 04:07:01;;;;;;;21.07;14.40;;;;;;;0.83;49.71;101965.03;5017803;28;20931;-45
2022/03/13 04:09:29;;;;;;;16.80;14.80;;;;;;;0.84;48.86;101966.69;5016754;28;20468;-47
2022/03/13 04:11:57;;;;;;;16.53;14.60;;;;;;;0.84;49.50;101967.53;5017439;28;20437;-48
2022/03/13 04:14:25;;;;;;;15.60;14.00;;;;;;;0.86;49.11;101967.44;5017595;28;20433;-47
2022/03/13 04:16:53;;;;;;;18.70;15.07;;;;;;;0.87;48.69;101963.84;5017686;28;20532;-46
2022/03/13 04:19:21;;;;;;;14.50;13.03;;;;;;;0.84;49.19;101958.81;5016357;28;20461;-48
2022/03/13 04:21:50;;;;;;;16.33;13.77;;;;;;;0.86;49.17;101967.44;5017167;28;20535;-46
2022/03/13 04:24:18;;;;;;;15.20;13.60;;;;;;;0.84;48.52;101966.69;5016676;28;20439;-47
2022/03/13 04:26:45;;;;;;;17.77;14.50;;;;;;;0.84;49.08;101964.06;5016788;28;20516;-45
2022/03/13 04:29:13;;;;;;;17.43;13.83;;;;;;;0.81;49.03;101959.84;5016218;28;20616;-47
2022/03/13 04:31:42;;;;;;;15.47;13.87;;;;;;;0.82;48.74;101963.34;5017261;28;20447;-45
2022/03/13 04:34:15;;;;;;;17.13;13.73;;;;;;;0.83;48.76;101957.16;5017157;28;20516;-46
2022/03/13 04:36:44;;;;;;;14.63;13.23;;;;;;;0.84;48.62;101954.41;5017113;28;20439;-48
2022/03/13 04:39:13;;;;;;;19.83;15.27;;;;;;;0.81;49.04;101951.97;5015820;28;20476;-46
2022/03/13 04:41:41;;;;;;;18.33;14.77;;;;;;;0.80;48.51;101952.94;5017011;28;20433;-47
2022/03/13 04:44:09;;;;;;;18.67;14.30;;;;;;;0.76;48.90;101951.47;5016727;28;20523;-44
2022/03/13 04:46:36;;;;;;;20.87;14.40;;;;;;;0.75;49.31;101954.19;5016961;28;20879;-45
2022/03/13 04:49:05;;;;;;;20.67;14.47;;;;;;;0.74;49.12;101953.38;5016266;28;20485;-48
2022/03/13 04:51:32;;;;;;;36.63;14.40;;;;;;;0.74;49.67;101955.13;5016818;28;20490;-46
2022/03/13 04:54:00;;;;;;;15.70;12.97;;;;;;;0.71;49.63;101964.06;5016911;28;20864;-45
2022/03/13 04:56:29;;;;;;;14.57;12.87;;;;;;;0.68;48.51;101961.66;5017068;28;20429;-51
2022/03/13 04:58:57;;;;;;;18.10;13.53;;;;;;;0.64;48.77;101969.81;5015875;28;20483;-47
2022/03/13 05:01:24;;;;;;;18.50;13.83;;;;;;;0.56;49.31;101970.34;5016114;28;20444;-49
2022/03/13 05:03:53;;;;;;;19.27;13.50;;;;;;;0.51;49.66;101973.25;5016978;28;20456;-45
2022/03/13 05:06:21;;;;;;;19.67;15.63;;;;;;;0.48;50.70;101980.50;5016402;28;21029;-48
2022/03/13 05:08:49;;;;;;;18.00;14.40;;;;;;;0.41;50.70;101979.25;5016410;28;20433;-48
2022/03/13 05:11:17;;;;;;;18.50;14.40;;;;;;;0.36;49.81;101981.34;5016116;28;20463;-47
2022/03/13 05:13:46;;;;;;;15.40;12.97;;;;;;;0.31;49.67;101984.25;5016984;28;20451;-47
2022/03/13 05:16:14;;;;;;;14.80;11.80;;;;;;;0.28;49.63;101989.69;5016894;28;20480;-50
2022/03/13 05:18:42;;;;;;;18.90;14.20;;;;;;;0.26;49.61;101980.25;5016215;28;20535;-47
2022/03/13 05:21:09;;;;;;;15.70;14.17;;;;;;;0.21;49.82;101985.78;5015956;28;21004;-48
2022/03/13 05:23:37;;;;;;;16.20;13.80;;;;;;;0.15;50.11;101990.59;5016600;28;20522;-47
2022/03/13 05:26:04;;;;;;;16.67;14.43;;;;;;;0.16;50.42;101987.88;5017093;28;20442;-47
2022/03/13 05:28:33;;;;;;;15.80;13.70;;;;;;;0.15;49.71;101986.16;5016223;28;20865;-46
2022/03/13 05:31:02;;;;;;;18.97;13.50;;;;;;;0.13;50.55;101992.47;5015416;28;20556;-49
2022/03/13 05:33:30;;;;;;;14.80;13.40;;;;;;;0.07;50.22;101996.31;5016029;28;20437;-49
2022/03/13 05:35:58;;;;;;;14.83;13.23;;;;;;;0.04;49.46;101991.28;5016355;28;20540;-47
2022/03/13 05:38:26;;;;;;;14.70;13.30;;;;;;;0.01;50.18;101994.09;5016023;28;20473;-49
2022/03/13 05:40:54;;;;;;;18.17;15.10;;;;;;;0.01;51.01;101999.34;5015220;28;20464;-45
2022/03/13 05:43:23;;;;;;;19.00;14.40;;;;;;;-0.02;50.74;101992.50;5016210;28;20513;-45
2022/03/13 05:45:53;;;;;;;14.97;13.57;;;;;;;-0.05;50.83;101986.63;5015821;28;20433;-47
2022/03/13 05:48:23;;;;;;;13.30;11.90;;;;;;;-0.10;51.34;101984.31;5015839;28;20536;-47
2022/03/13 05:50:50;;;;;;;16.93;14.20;;;;;;;-0.11;51.89;101994.88;5014922;28;20986;-48
2022/03/13 05:53:18;;;;;;;18.90;13.60;;;;;;;-0.10;51.98;101986.09;5015281;28;20818;-47
2022/03/13 05:55:45;;;;;;;16.07;13.93;;;;;;;-0.01;51.28;101988.13;5016437;28;20524;-46
2022/03/13 05:58:14;;;;;;;16.83;15.23;;;;;;;0.09;50.78;101985.75;5015647;28;20531;-48
2022/03/13 06:00:42;;;;;;;13.93;12.73;;;;;;;0.20;50.98;101985.88;5015208;28;20507;-46
2022/03/13 06:03:10;;;;;;;16.80;14.00;;;;;;;0.29;50.14;101977.41;5016257;28;20444;-48
2022/03/13 06:05:39;;;;;;;16.90;13.90;;;;;;;0.38;50.32;101980.28;5016599;28;20525;-44
2022/03/13 06:08:07;;;;;;;13.60;12.20;;;;;;;0.49;49.28;101984.81;5016529;28;20500;-48
2022/03/13 06:10:34;;;;;;;15.60;13.40;;;;;;;0.57;49.92;101989.56;5015805;28;20471;-45
2022/03/13 06:13:02;;;;;;;16.80;12.60;;;;;;;1.22;49.68;101995.59;5014496;28;20967;-45
2022/03/13 06:15:30;;;;;;;14.50;13.00;;;;;;;1.96;47.57;101995.56;5012226;28;20437;-47
2022/03/13 06:17:58;;;;;;;16.00;14.40;;;;;;;2.75;46.52;101998.38;5012241;28;20429;-45
2022/03/13 06:20:25;;;;;;;15.97;14.20;;;;;;;3.34;44.13;101997.28;5011553;28;20473;-45
2022/03/13 06:22:54;;;;;;;15.40;13.80;;;;;;;3.97;43.06;101998.47;5012284;28;20904;-47
2022/03/13 06:25:22;;;;;;;15.87;14.13;;;;;;;4.53;41.30;101985.03;5012133;28;20429;-47
2022/03/13 06:27:50;;;;;;;15.20;13.80;;;;;;;4.96;40.16;101985.75;5011803;28;20470;-45
2022/03/13 06:30:19;;;;;;;15.87;14.47;;;;;;;5.27;39.33;101994.56;5011560;28;20468;-45
2022/03/13 06:32:49;;;;;;;17.03;15.40;;;;;;;5.52;39.63;101994.97;5016810;28;20856;-46
2022/03/13 06:35:19;;;;;;;15.73;14.43;;;;;;;5.81;37.79;101996.84;5031636;28;20560;-46
2022/03/13 06:37:48;;;;;;;15.80;14.20;;;;;;;6.19;38.23;101996.97;5031268;28;20436;-45
2022/03/13 06:40:19;;;;;;;16.70;14.87;;;;;;;6.22;37.14;101996.69;5030884;28;20525;-45
2022/03/13 06:42:48;;;;;;;14.87;13.53;;;;;;;6.30;37.68;101990.72;5031516;28;20482;-45
2022/03/13 06:45:16;;;;;;;15.90;14.30;;;;;;;6.46;37.00;101996.28;5020120;28;20528;-46
2022/03/13 06:47:46;;;;;;;14.17;12.83;;;;;;;6.72;37.51;101991.28;5011498;28;20438;-45
2022/03/13 06:50:16;;;;;;;14.83;13.43;;;;;;;6.66;35.74;101990.00;5011278;28;20464;-47
2022/03/13 06:52:44;;;;;;;15.90;14.20;;;;;;;6.57;35.32;101985.56;5013560;28;20436;-48
2022/03/13 06:55:13;;;;;;;15.33;13.73;;;;;;;6.44;35.06;101985.00;5015782;28;20460;-45
2022/03/13 06:57:43;;;;;;;15.33;13.73;;;;;;;6.50;36.54;101990.59;5015438;28;20441;-45
2022/03/13 07:00:12;;;;;;;15.67;14.13;;;;;;;6.51;35.81;101986.94;5015209;28;20461;-45
2022/03/13 07:02:46;;;;;;;15.20;12.93;;;;;;;6.22;35.32;101990.53;5015711;28;20425;-45
2022/03/13 07:05:14;;;;;;;13.93;12.60;;;;;;;6.13;36.37;101989.56;5015766;28;20432;-46
2022/03/13 07:07:42;;;;;;;15.53;13.57;;;;;;;5.96;36.49;101999.03;5015646;28;20437;-46
2022/03/13 07:10:10;;;;;;;20.87;15.27;;;;;;;5.59;36.98;101989.97;5015010;28;20994;-45
2022/03/13 07:12:40;;;;;;;16.30;14.70;;;;;;;5.38;37.61;101990.00;5015323;28;20606;-45
2022/03/13 07:15:13;;;;;;;14.90;13.50;;;;;;;5.21;37.99;101998.56;5015491;28;20441;-45
2022/03/13 07:17:42;;;;;;;16.40;14.43;;;;;;;4.95;37.76;101995.50;5015750;28;20800;-45
2022/03/13 07:20:11;;;;;;;14.00;12.53;;;;;;;4.85;38.08;102004.34;5015050;28;20465;-47
2022/03/13 07:22:39;;;;;;;15.13;13.73;;;;;;;4.83;38.46;101998.34;5015594;28;20435;-45
2022/03/13 07:25:08;;;;;;;15.20;13.17;;;;;;;4.64;38.70;101996.41;5015440;28;20441;-45
2022/03/13 07:27:36;;;;;;;14.40;13.00;;;;;;;4.41;38.77;101993.03;5014821;28;20440;-45
2022/03/13 07:30:05;;;;;;;17.83;13.60;;;;;;;4.50;39.49;101990.59;5014455;28;20954;-47
2022/03/13 07:32:34;;;;;;;13.13;11.60;;;;;;;4.62;38.88;102000.97;5015487;28;20529;-45
2022/03/13 07:35:02;;;;;;;14.40;13.00;;;;;;;4.77;38.75;101997.06;5015559;28;20437;-47
2022/03/13 07:37:29;;;;;;;13.70;12.50;;;;;;;4.87;37.99;101994.47;5015021;28;20428;-45
2022/03/13 07:39:58;;;;;;;15.40;13.80;;;;;;;5.09;38.59;101994.31;5014208;28;20531;-45
2022/03/13 07:42:26;;;;;;;13.70;12.40;;;;;;;5.25;37.53;101992.06;5014978;28;20428;-47
2022/03/13 07:44:54;;;;;;;13.87;12.47;;;;;;;5.45;36.93;101992.97;5015031;28;20529;-47
2022/03/13 07:47:21;;;;;;;16.77;12.00;;;;;;;5.70;36.65;101995.16;5014797;28;20509;-46
2022/03/13 07:49:51;;;;;;;15.50;13.43;;;;;;;5.75;36.03;101995.59;5014568;28;20563;-48
2022/03/13 07:52:18;;;;;;;22.13;12.87;;;;;;;5.97;35.76;101995.38;5014943;28;20528;-46
2022/03/13 07:54:46;;;;;;;13.90;12.60;;;;;;;6.07;35.72;101998.06;5014465;28;20537;-46
2022/03/13 07:57:13;;;;;;;15.50;12.20;;;;;;;6.05;35.32;102000.84;5012186;28;20449;-46
2022/03/13 07:59:41;;;;;;;14.10;12.73;;;;;;;6.02;36.18;102002.94;5015032;28;20476;-48
2022/03/13 08:02:09;;;;;;;13.77;12.47;;;;;;;6.04;35.52;102001.81;5013143;28;20437;-45
2022/03/13 08:04:37;;;;;;;15.57;14.07;;;;;;;5.94;36.03;101997.50;5013511;28;20445;-45
2022/03/13 08:07:07;;;;;;;13.83;12.63;;;;;;;5.83;35.97;102001.03;5013399;28;20521;-47
2022/03/13 08:09:35;;;;;;;13.50;12.40;;;;;;;5.88;36.00;102003.34;5013383;28;20467;-46
2022/03/13 08:12:03;;;;;;;15.63;12.70;;;;;;;5.85;36.00;102001.81;5013210;28;20433;-45
2022/03/13 08:14:31;;;;;;;14.60;13.07;;;;;;;6.02;35.72;101993.19;5013506;28;20842;-46
2022/03/13 08:16:59;;;;;;;13.57;12.23;;;;;;;6.05;35.66;102005.31;5015821;28;20429;-47
2022/03/13 08:19:26;;;;;;;13.43;12.00;;;;;;;6.08;36.25;102002.38;5013241;28;20468;-46
2022/03/13 08:21:54;;;;;;;13.33;11.60;;;;;;;6.04;35.54;101998.34;5012749;28;20528;-45
2022/03/13 08:24:24;;;;;;;13.30;12.00;;;;;;;5.99;35.34;101998.75;5006026;28;20484;-45
2022/03/13 08:26:51;;;;;;;13.37;12.17;;;;;;;6.23;36.36;102001.03;5013095;28;20814;-46
2022/03/13 08:29:19;;;;;;;13.60;11.60;;;;;;;6.26;35.01;101986.66;5013127;28;20466;-45
2022/03/13 08:31:47;;;;;;;13.80;12.60;;;;;;;6.41;35.50;101996.72;5012437;28;20528;-44
2022/03/13 08:34:15;;;;;;;13.37;12.07;;;;;;;6.43;35.59;101986.81;5012429;28;20437;-44
2022/03/13 08:36:46;;;;;;;12.83;11.03;;;;;;;6.47;34.30;101979.41;5012408;28;20449;-46
2022/03/13 08:39:14;;;;;;;12.47;11.30;;;;;;;6.48;33.91;101981.09;5012591;28;21161;-46
2022/03/13 08:41:43;;;;;;;15.47;11.53;;;;;;;6.56;34.46;101981.22;5012283;28;20477;-45
2022/03/13 08:44:11;;;;;;;12.33;11.13;;;;;;;6.68;33.74;101983.59;5015782;28;20432;-46
2022/03/13 08:46:39;;;;;;;13.13;11.83;;;;;;;6.68;33.72;101975.66;5013831;28;20536;-45
2022/03/13 08:49:07;;;;;;;13.30;11.50;;;;;;;6.83;33.80;101973.38;5012281;28;20449;-44
2022/03/13 08:51:35;;;;;;;14.10;12.23;;;;;;;7.03;34.58;101974.16;5011614;28;20433;-49
2022/03/13 08:54:03;;;;;;;12.50;11.30;;;;;;;7.13;33.44;101973.19;5012133;28;20437;-48
2022/03/13 08:56:31;;;;;;;16.23;11.17;;;;;;;7.27;32.61;101973.69;5012230;28;20441;-48
2022/03/13 08:59:00;;;;;;;13.30;10.73;;;;;;;7.36;31.79;101975.47;5012239;28;20524;-45
2022/03/13 09:01:28;;;;;;;12.20;11.10;;;;;;;7.44;32.22;101979.06;5012280;28;20487;-46
2022/03/13 09:03:56;;;;;;;12.67;11.23;;;;;;;7.41;31.63;101966.06;5009016;28;20445;-45
2022/03/13 09:06:24;;;;;;;13.37;11.93;;;;;;;7.47;32.00;101972.59;5011986;28;20560;-46
2022/03/13 09:08:51;;;;;;;17.53;11.73;;;;;;;7.65;31.48;101966.38;5012644;28;20476;-47
2022/03/13 09:11:19;;;;;;;13.80;11.63;;;;;;;7.65;30.63;101963.72;5011378;28;20465;-47
2022/03/13 09:13:47;;;;;;;14.53;11.43;;;;;;;7.60;30.84;101963.34;5011758;28;20803;-44
2022/03/13 09:16:16;;;;;;;14.23;11.70;;;;;;;7.85;31.92;101961.81;5011692;28;20520;-46
2022/03/13 09:18:44;;;;;;;12.90;11.60;;;;;;;8.04;31.48;101968.78;5012700;28;20807;-46
2022/03/13 09:21:11;;;;;;;13.00;11.80;;;;;;;8.16;30.92;101964.94;5011226;28;20477;-45
2022/03/13 09:23:39;;;;;;;12.67;11.43;;;;;;;8.34;31.68;101961.34;5011956;28;20437;-47
2022/03/13 09:26:07;;;;;;;14.40;13.00;;;;;;;8.32;30.49;101962.47;5012022;28;20437;-46
2022/03/13 09:28:34;;;;;;;12.53;11.43;;;;;;;8.32;30.64;101955.34;5012440;28;20479;-46
2022/03/13 09:31:02;;;;;;;14.50;13.00;;;;;;;8.57;30.55;101952.91;5011022;28;20499;-45
2022/03/13 09:33:31;;;;;;;14.30;12.30;;;;;;;8.30;29.45;101959.97;5011190;28;20511;-45
2022/03/13 09:35:59;;;;;;;11.27;10.37;;;;;;;8.48;30.20;101956.47;5011289;28;20441;-46
2022/03/13 09:38:27;;;;;;;12.83;11.40;;;;;;;8.49;29.65;101942.19;5011977;28;20429;-45
2022/03/13 09:40:55;;;;;;;12.90;11.50;;;;;;;8.64;29.77;101948.63;5010787;28;20477;-46
2022/03/13 09:43:23;;;;;;;13.90;12.50;;;;;;;8.81;30.43;101950.44;5010853;28;20441;-45
2022/03/13 09:45:51;;;;;;;12.87;11.60;;;;;;;8.95;30.39;101962.31;5011059;28;20433;-47
2022/03/13 09:48:21;;;;;;;12.07;10.90;;;;;;;8.90;30.66;101950.31;5011912;28;20525;-45
2022/03/13 09:50:50;;;;;;;12.73;11.63;;;;;;;9.13;31.02;101949.78;5010792;28;20476;-48
2022/03/13 09:53:17;;;;;;;12.60;11.50;;;;;;;9.28;30.22;101950.88;5010634;28;20433;-45
2022/03/13 09:55:45;;;;;;;13.83;12.50;;;;;;;9.46;29.91;101959.59;5010493;28;20807;-44
2022/03/13 09:58:14;;;;;;;13.20;11.67;;;;;;;9.39;29.13;101951.41;5011153;28;20964;-45
2022/03/13 10:00:41;;;;;;;12.10;11.00;;;;;;;9.52;30.10;101952.81;5010664;28;20508;-45
2022/03/13 10:03:11;;;;;;;13.50;12.10;;;;;;;9.52;29.27;101956.31;5010769;28;20440;-44
2022/03/13 10:05:44;;;;;;;13.77;12.37;;;;;;;9.71;29.93;101948.03;5010544;28;20437;-45
2022/03/13 10:08:14;;;;;;;13.10;11.90;;;;;;;9.80;29.90;101954.22;5011210;28;20539;-46
2022/03/13 10:10:44;;;;;;;13.67;11.93;;;;;;;9.89;28.88;101950.59;5010333;28;20838;-45
2022/03/13 10:13:13;;;;;;;13.27;12.00;;;;;;;9.92;28.91;101943.09;5010544;28;20525;-46
2022/03/13 10:15:43;;;;;;;13.13;11.97;;;;;;;9.93;29.65;101947.44;5010467;28;20437;-44
2022/03/13 10:31:54;;;;;;;12.80;11.50;;;;;;;10.22;26.67;101939.03;5158114;27;20564;-46
2022/03/13 10:34:23;;;;;;;13.17;11.97;;;;;;;10.13;27.36;101952.47;5120930;28;20830;-47
2022/03/13 10:36:51;;;;;;;11.90;10.90;;;;;;;9.96;28.01;101940.97;5127811;28;20438;-46
2022/03/13 10:39:20;;;;;;;11.97;10.57;;;;;;;9.94;27.94;101941.13;5104276;27;20874;-48
2022/03/13 10:41:58;;;;;;;12.03;10.93;;;;;;;10.01;27.71;101939.47;5086655;28;20499;-44
2022/03/13 10:44:27;;;;;;;12.97;11.87;;;;;;;10.05;27.74;101942.63;5077215;28;20581;-45
2022/03/13 10:46:57;;;;;;;13.10;12.00;;;;;;;9.85;27.81;101931.44;5081608;28;20444;-47
2022/03/13 10:49:38;;;;;;;13.17;12.07;;;;;;;9.70;27.79;101926.91;5083221;28;20991;-46
2022/03/13 10:52:23;;;;;;;13.30;11.90;;;;;;;9.80;28.04;101925.75;5066579;28;20434;-46
2022/03/13 10:54:51;;;;;;;13.23;12.00;;;;;;;9.75;27.25;101924.59;5067544;28;20426;-46
2022/03/13 10:57:19;;;;;;;13.00;11.87;;;;;;;9.69;27.86;101920.75;5067168;28;20441;-45
2022/03/13 11:00:09;;;;;;;13.53;11.93;;;;;;;9.86;27.29;101919.78;5066777;28;20537;-48
2022/03/13 11:02:38;;;;;;;15.20;11.87;;;;;;;9.86;27.54;101927.78;5055509;28;20478;-46
2022/03/13 11:05:06;;;;;;;12.63;11.50;;;;;;;9.86;27.19;101926.94;5082060;28;20442;-45
2022/03/13 11:07:34;;;;;;;13.77;12.40;;;;;;;9.96;27.50;101923.13;5087521;28;20460;-46
2022/03/13 11:10:05;;;;;;;14.00;12.70;;;;;;;10.00;27.71;101921.00;5086525;28;20453;-46
2022/03/13 11:12:33;;;;;;;14.47;12.10;;;;;;;10.29;28.13;101929.38;5086410;28;20828;-48
2022/03/13 11:15:02;;;;;;;12.97;11.93;;;;;;;10.41;27.31;101930.72;5087393;28;20434;-46
2022/03/13 11:17:32;;;;;;;12.70;11.70;;;;;;;10.41;28.49;101927.22;5087340;28;20513;-46
2022/03/13 11:20:03;;;;;;;13.70;12.40;;;;;;;10.52;28.00;101918.88;5085194;28;20594;-51
2022/03/13 11:22:32;;;;;;;12.73;11.60;;;;;;;10.63;28.42;101917.72;5080344;28;20472;-49
2022/03/13 11:25:03;;;;;;;13.53;12.33;;;;;;;10.63;27.98;101909.69;5066789;28;20470;-49
2022/03/13 11:27:32;;;;;;;14.60;13.27;;;;;;;10.58;28.05;101910.19;5067075;28;20509;-49
2022/03/13 11:30:00;;;;;;;14.47;13.00;;;;;;;10.70;27.81;101908.00;5065876;28;20451;-47
2022/03/13 11:32:33;;;;;;;13.80;12.50;;;;;;;10.69;28.37;101906.38;5053595;28;20538;-50
2022/03/13 11:35:23;;;;;;;15.17;13.47;;;;;;;10.70;28.31;101911.50;5052446;28;20514;-46
2022/03/13 11:37:52;;;;;;;13.80;12.70;;;;;;;10.90;28.53;101914.66;5053672;28;20441;-50